createdAt,value
2023-02-11T00:01:46.231Z,6.40
2023-02-11T00:06:00.232Z,6.40
2023-02-11T00:10:03.654Z,6.40
2023-02-11T00:14:08.823Z,6.40
2023-02-11T00:18:11.619Z,6.40
2023-02-11T00:22:15.740Z,6.40
2023-02-11T00:26:20.579Z,6.40
2023-02-11T00:30:23.489Z,6.40
2023-02-11T00:34:27.380Z,6.40
2023-02-11T00:38:31.690Z,6.40
2023-02-11T00:42:35.726Z,6.40
2023-02-11T00:46:38.643Z,6.40
2023-02-11T00:50:42.086Z,6.40
2023-02-11T00:54:46.381Z,6.40
2023-02-11T00:58:50.119Z,6.40
2023-02-11T01:02:53.570Z,6.40
2023-02-11T01:06:56.359Z,6.40
2023-02-11T01:11:06.088Z,6.40
2023-02-11T01:15:10.864Z,6.30
2023-02-11T01:19:13.591Z,6.30
2023-02-11T01:23:16.329Z,6.20
2023-02-11T01:27:21.404Z,6.20
2023-02-11T01:31:24.218Z,6.20
2023-02-11T01:35:28.318Z,6.20
2023-02-11T01:39:34.814Z,6.20
2023-02-11T01:43:41.200Z,6.20
2023-02-11T01:47:44.040Z,6.20
2023-02-11T01:51:52.369Z,6.20
2023-02-11T01:56:14.171Z,6.20
2023-02-11T02:00:24.245Z,6.20
2023-02-11T02:04:31.519Z,6.10
2023-02-11T02:08:38.787Z,6.10
2023-02-11T02:12:41.606Z,6.00
2023-02-11T02:16:46.124Z,6.00
2023-02-11T02:21:27.557Z,5.90
2023-02-11T02:25:47.193Z,5.90
2023-02-11T02:30:17.616Z,5.90
2023-02-11T02:34:27.832Z,5.80
2023-02-11T02:38:35.328Z,5.80
2023-02-11T02:42:41.150Z,5.80
2023-02-11T02:46:43.998Z,5.80
2023-02-11T02:50:48.418Z,5.80
2023-02-11T02:55:16.195Z,5.80
2023-02-11T02:59:38.951Z,5.80
2023-02-11T03:03:49.523Z,5.70
2023-02-11T03:07:59.509Z,5.70
2023-02-11T03:12:04.028Z,5.70
2023-02-11T03:16:12.084Z,5.70
2023-02-11T03:20:18.556Z,5.70
2023-02-11T03:24:29.476Z,5.70
2023-02-11T03:28:41.403Z,5.70
2023-02-11T03:32:52.108Z,5.70
2023-02-11T03:36:57.907Z,5.70
2023-02-11T03:41:05.595Z,5.70
2023-02-11T03:45:12.129Z,5.70
2023-02-11T03:49:18.805Z,5.70
2023-02-11T03:53:22.615Z,5.70
2023-02-11T03:57:26.717Z,5.70
2023-02-11T04:01:29.735Z,5.70
2023-02-11T04:05:33.178Z,5.70
2023-02-11T04:09:36.818Z,5.70
2023-02-11T04:13:40.878Z,5.70
2023-02-11T04:17:43.860Z,5.70
2023-02-11T04:21:47.740Z,5.70
2023-02-11T04:25:50.949Z,5.70
2023-02-11T04:29:55.296Z,5.80
2023-02-11T04:33:58.395Z,5.80
2023-02-11T04:38:01.119Z,5.80
2023-02-11T04:42:03.956Z,5.80
2023-02-11T04:46:08.177Z,5.80
2023-02-11T04:50:11.226Z,5.80
2023-02-11T04:54:14.004Z,5.80
2023-02-11T04:58:16.823Z,5.80
2023-02-11T05:02:21.056Z,5.70
2023-02-11T05:06:23.901Z,5.80
2023-02-11T05:10:26.663Z,5.80
2023-02-11T05:14:29.395Z,5.80
2023-02-11T05:18:33.500Z,5.80
2023-02-11T05:22:36.255Z,5.80
2023-02-11T05:26:38.968Z,5.80
2023-02-11T05:30:41.855Z,5.80
2023-02-11T05:34:46.163Z,5.80
2023-02-11T05:38:48.960Z,5.80
2023-02-11T05:42:51.695Z,5.80
2023-02-11T05:46:54.411Z,5.80
2023-02-11T05:50:58.692Z,5.80
2023-02-11T05:55:01.551Z,5.80
2023-02-11T05:59:04.316Z,5.80
2023-02-11T06:03:08.003Z,5.80
2023-02-11T06:07:12.176Z,5.80
2023-02-11T06:11:15.987Z,5.80
2023-02-11T06:15:18.951Z,5.70
2023-02-11T06:19:21.744Z,5.70
2023-02-11T06:23:27.945Z,5.70
2023-02-11T06:27:31.931Z,5.80
2023-02-11T06:31:34.800Z,5.70
2023-02-11T06:35:39.419Z,5.80
2023-02-11T06:39:45.214Z,5.80
2023-02-11T06:43:48.396Z,5.80
2023-02-11T06:47:52.854Z,5.80
2023-02-11T06:51:55.632Z,5.80
2023-02-11T06:56:04.244Z,5.80
2023-02-11T07:00:08.039Z,5.80
2023-02-11T07:04:11.232Z,5.80
2023-02-11T07:08:14.015Z,5.70
2023-02-11T07:12:18.065Z,5.70
2023-02-11T07:16:21.174Z,5.70
2023-02-11T07:20:24.060Z,5.70
2023-02-11T07:24:26.801Z,5.80
2023-02-11T07:28:30.924Z,5.70
2023-02-11T07:32:33.663Z,5.70
2023-02-11T07:36:36.392Z,5.80
2023-02-11T07:40:39.130Z,5.70
2023-02-11T07:44:43.197Z,5.80
2023-02-11T07:48:46.143Z,5.80
2023-02-11T07:52:48.896Z,5.80
2023-02-11T07:56:51.695Z,5.80
2023-02-11T08:00:56.182Z,5.80
2023-02-11T08:04:58.992Z,5.80
2023-02-11T08:09:06.518Z,5.80
2023-02-11T08:13:09.312Z,5.80
2023-02-11T08:17:13.453Z,5.80
2023-02-11T08:21:16.413Z,5.90
2023-02-11T08:25:19.167Z,5.90
2023-02-11T08:29:22.969Z,5.90
2023-02-11T08:33:27.270Z,5.90
2023-02-11T08:37:32.942Z,6.00
2023-02-11T08:41:36.517Z,6.00
2023-02-11T08:45:39.378Z,6.00
2023-02-11T08:49:43.641Z,6.10
2023-02-11T08:53:47.048Z,6.10
2023-02-11T08:57:49.848Z,6.10
2023-02-11T09:01:52.661Z,6.10
2023-02-11T09:05:57.047Z,6.10
2023-02-11T09:09:59.836Z,6.10
2023-02-11T09:14:03.963Z,6.20
2023-02-11T09:18:07.461Z,6.20
2023-02-11T09:22:11.622Z,6.20
2023-02-11T09:26:17.148Z,6.20
2023-02-11T09:30:20.115Z,6.20
2023-02-11T09:34:22.886Z,6.30
2023-02-11T09:38:26.969Z,6.30
2023-02-11T09:42:41.158Z,6.30
2023-02-11T09:46:46.680Z,6.30
2023-02-11T09:50:52.591Z,6.40
2023-02-11T09:54:58.483Z,6.40
2023-02-11T09:59:01.240Z,6.40
2023-02-11T10:03:36.236Z,6.50
2023-02-11T10:07:47.015Z,6.50
2023-02-11T10:12:01.314Z,6.50
2023-02-11T10:16:17.967Z,6.60
2023-02-11T10:20:31.330Z,6.60
2023-02-11T10:24:35.432Z,6.60
2023-02-11T10:28:41.217Z,6.60
2023-02-11T10:32:49.473Z,6.60
2023-02-11T10:36:52.870Z,6.70
2023-02-11T10:40:55.672Z,6.70
2023-02-11T10:45:03.304Z,6.70
2023-02-11T10:49:06.151Z,6.80
2023-02-11T10:53:16.975Z,6.80
2023-02-11T10:57:20.717Z,6.80
2023-02-11T11:01:38.315Z,6.80
2023-02-11T11:05:48.104Z,6.80
2023-02-11T11:09:55.146Z,6.80
2023-02-11T11:13:59.824Z,6.80
2023-02-11T11:18:23.656Z,6.80
2023-02-11T11:22:26.749Z,6.80
2023-02-11T11:26:40.589Z,6.90
2023-02-11T11:30:44.325Z,6.90
2023-02-11T11:34:54.134Z,6.90
2023-02-11T11:39:00.036Z,6.90
2023-02-11T11:43:20.234Z,6.90
2023-02-11T11:47:33.453Z,6.90
2023-02-11T11:51:40.369Z,6.90
2023-02-11T11:55:46.794Z,6.90
2023-02-11T11:59:54.272Z,6.90
2023-02-11T12:04:26.061Z,6.90
2023-02-11T12:08:42.369Z,6.90
2023-02-11T12:12:51.699Z,6.90
2023-02-11T12:17:03.537Z,6.90
2023-02-11T12:21:33.756Z,6.90
2023-02-11T12:25:47.624Z,7.00
2023-02-11T12:30:03.938Z,7.00
2023-02-11T12:34:25.580Z,7.00
2023-02-11T12:38:43.580Z,7.00
2023-02-11T12:43:16.205Z,7.00
2023-02-11T12:47:28.181Z,7.00
2023-02-11T12:51:52.747Z,7.10
2023-02-11T12:56:19.862Z,7.10
2023-02-11T13:00:47.487Z,7.10
2023-02-11T13:05:20.958Z,7.10
2023-02-11T13:14:48.478Z,7.20
2023-02-11T13:19:47.168Z,7.20
2023-02-11T13:24:25.168Z,7.30
2023-02-11T13:28:42.538Z,7.30
2023-02-11T13:33:32.913Z,7.30
2023-02-11T13:37:41.085Z,7.40
2023-02-11T13:42:10.461Z,7.50
2023-02-11T13:47:02.825Z,7.50
2023-02-11T13:56:28.559Z,7.50
2023-02-11T14:01:03.294Z,7.50
2023-02-11T14:05:56.652Z,7.50
2023-02-11T14:21:08.484Z,7.50
2023-02-11T14:25:30.451Z,7.50
2023-02-11T14:30:01.612Z,7.50
2023-02-11T14:34:22.470Z,7.50
2023-02-11T14:39:09.712Z,7.50
2023-02-11T14:43:19.865Z,7.50
2023-02-11T14:47:37.923Z,7.50
2023-02-11T14:51:45.098Z,7.50
2023-02-11T14:55:51.093Z,7.50
2023-02-11T14:59:59.420Z,7.60
2023-02-11T15:04:27.848Z,7.60
2023-02-11T15:08:34.467Z,7.60
2023-02-11T15:12:46.441Z,7.60
2023-02-11T15:16:54.283Z,7.60
2023-02-11T15:20:57.471Z,7.60
2023-02-11T15:25:11.114Z,7.60
2023-02-11T15:29:17.486Z,7.60
2023-02-11T15:33:25.280Z,7.60
2023-02-11T15:37:30.272Z,7.60
2023-02-11T15:41:39.392Z,7.60
2023-02-11T15:45:45.141Z,7.50
2023-02-11T15:49:49.010Z,7.50
2023-02-11T15:53:56.752Z,7.60
2023-02-11T15:58:02.854Z,7.50
2023-02-11T16:06:39.913Z,7.50
2023-02-11T16:15:58.186Z,7.50
2023-02-11T16:20:01.445Z,7.50
2023-02-11T16:24:06.497Z,7.40
2023-02-11T16:28:16.306Z,7.50
2023-02-11T16:32:23.677Z,7.40
2023-02-11T16:36:45.052Z,7.50
2023-02-11T16:40:50.834Z,7.40
2023-02-11T16:44:57.645Z,7.40
2023-02-11T16:49:10.137Z,7.40
2023-02-11T16:53:14.520Z,7.40
2023-02-11T16:57:19.878Z,7.40
2023-02-11T17:01:22.876Z,7.40
2023-02-11T17:05:27.206Z,7.40
2023-02-11T17:09:31.217Z,7.40
2023-02-11T17:13:34.913Z,7.50
2023-02-11T17:17:37.891Z,7.50
2023-02-11T17:21:43.591Z,7.50
2023-02-11T17:25:47.461Z,7.50
2023-02-11T17:29:50.248Z,7.50
2023-02-11T17:33:53.092Z,7.50
2023-02-11T17:37:58.658Z,7.50
2023-02-11T17:42:07.291Z,7.50
2023-02-11T17:46:11.027Z,7.50
2023-02-11T17:50:14.697Z,7.50
2023-02-11T17:54:20.631Z,7.60
2023-02-11T17:58:26.720Z,7.50
2023-02-11T18:02:29.883Z,7.60
2023-02-11T18:06:33.874Z,7.50
2023-02-11T18:10:38.207Z,7.50
2023-02-11T18:14:42.603Z,7.60
2023-02-11T18:18:45.676Z,7.60
2023-02-11T18:22:48.497Z,7.60
2023-02-11T18:26:54.924Z,7.60
2023-02-11T18:30:59.106Z,7.60
2023-02-11T18:35:02.057Z,7.60
2023-02-11T18:39:06.020Z,7.60
2023-02-11T18:43:15.333Z,7.60
2023-02-11T18:47:18.613Z,7.50
2023-02-11T18:51:21.572Z,7.50
2023-02-11T18:55:41.685Z,7.50
2023-02-11T18:59:52.696Z,7.50
2023-02-11T19:03:57.785Z,7.60
2023-02-11T19:08:01.552Z,7.60
2023-02-11T19:12:04.690Z,7.70
2023-02-11T19:16:30.794Z,7.70
2023-02-11T19:20:35.611Z,7.70
2023-02-11T19:24:39.768Z,7.70
2023-02-11T19:28:42.670Z,7.70
2023-02-11T19:33:22.882Z,7.70
2023-02-11T19:37:25.695Z,7.70
2023-02-11T19:41:28.928Z,7.70
2023-02-11T19:45:31.861Z,7.70
2023-02-11T19:49:35.997Z,7.70
2023-02-11T19:53:38.904Z,7.70
2023-02-11T19:57:41.919Z,7.70
2023-02-11T20:01:47.536Z,7.70
2023-02-11T20:05:52.588Z,7.70
2023-02-11T20:09:55.616Z,7.70
2023-02-11T20:13:59.726Z,7.70
2023-02-11T20:18:02.516Z,7.70
2023-02-11T20:22:06.791Z,7.70
2023-02-11T20:26:11.468Z,7.70
2023-02-11T20:30:14.788Z,7.70
2023-02-11T20:34:18.094Z,7.70
2023-02-11T20:38:22.524Z,7.70
2023-02-11T20:42:25.370Z,7.60
2023-02-11T20:46:31.241Z,7.60
2023-02-11T20:50:34.942Z,7.60
2023-02-11T20:54:39.145Z,7.60
2023-02-11T20:58:42.045Z,7.60
2023-02-11T21:02:44.902Z,7.60
2023-02-11T21:06:49.788Z,7.50
2023-02-11T21:10:53.946Z,7.60
2023-02-11T21:14:57.881Z,7.50
2023-02-11T21:19:02.742Z,7.50
2023-02-11T21:23:05.551Z,7.50
2023-02-11T21:27:09.710Z,7.50
2023-02-11T21:31:20.624Z,7.50
2023-02-11T21:35:23.508Z,7.50
2023-02-11T21:39:26.344Z,7.40
2023-02-11T21:43:30.532Z,7.40
2023-02-11T21:47:33.323Z,7.40
2023-02-11T21:51:36.209Z,7.40
2023-02-11T21:55:40.077Z,7.40
2023-02-11T21:59:44.633Z,7.30
2023-02-11T22:03:48.758Z,7.30
2023-02-11T22:07:51.901Z,7.30
2023-02-11T22:11:54.880Z,7.30
2023-02-11T22:16:03.973Z,7.30
2023-02-11T22:20:08.131Z,7.30
2023-02-11T22:24:11.088Z,7.20
2023-02-11T22:28:14.076Z,7.20
2023-02-11T22:32:18.362Z,7.20
2023-02-11T22:36:26.425Z,7.20
2023-02-11T22:40:29.259Z,7.20
2023-02-11T22:44:32.043Z,7.20
2023-02-11T22:48:36.749Z,7.20
2023-02-11T22:52:39.558Z,7.20
2023-02-11T22:56:42.670Z,7.20
2023-02-11T23:00:45.687Z,7.20
2023-02-11T23:04:50.084Z,7.20
2023-02-11T23:08:53.016Z,7.20
2023-02-11T23:12:55.839Z,7.20
2023-02-11T23:16:58.735Z,7.20
2023-02-11T23:21:06.703Z,7.20
2023-02-11T23:25:09.736Z,7.20
2023-02-11T23:29:13.193Z,7.20
2023-02-11T23:33:15.989Z,7.20
2023-02-11T23:37:20.312Z,7.20
2023-02-11T23:41:24.613Z,7.20
2023-02-11T23:45:27.564Z,7.20
2023-02-11T23:49:30.354Z,7.20
2023-02-11T23:53:34.478Z,7.20
2023-02-11T23:57:37.525Z,7.20
